createdAt,value
2018-05-17T00:01:56.293Z,77.67
2018-05-17T00:04:23.925Z,77.50
2018-05-17T00:06:51.492Z,77.67
2018-05-17T00:09:19.215Z,77.77
2018-05-17T00:11:47.098Z,78.10
2018-05-17T00:16:41.553Z,77.97
2018-05-17T00:19:09.212Z,77.87
2018-05-17T00:21:37.069Z,78.29
2018-05-17T00:24:04.641Z,77.83
2018-05-17T00:26:32.268Z,77.83
2018-05-17T00:28:59.855Z,77.95
2018-05-17T00:31:27.482Z,77.98
2018-05-17T00:33:55.171Z,77.94
2018-05-17T00:36:22.755Z,77.97
2018-05-17T00:38:50.605Z,77.85
2018-05-17T00:41:18.176Z,77.92
2018-05-17T00:43:45.792Z,77.95
2018-05-17T00:46:13.400Z,77.83
2018-05-17T00:48:40.994Z,77.57
2018-05-17T00:51:08.635Z,77.23
2018-05-17T00:53:36.333Z,77.39
2018-05-17T00:56:03.912Z,77.47
2018-05-17T00:58:31.764Z,77.35
2018-05-17T01:00:59.492Z,77.29
2018-05-17T01:03:27.083Z,77.46
2018-05-17T01:05:54.719Z,77.44
2018-05-17T01:08:22.315Z,77.37
2018-05-17T01:10:49.950Z,77.43
2018-05-17T01:13:17.520Z,77.00
2018-05-17T01:15:45.155Z,76.62
2018-05-17T01:18:12.760Z,76.88
2018-05-17T01:20:40.334Z,76.75
2018-05-17T01:23:07.935Z,76.17
2018-05-17T01:25:35.751Z,76.15
2018-05-17T01:28:03.455Z,76.31
2018-05-17T01:30:31.019Z,76.13
2018-05-17T01:32:58.940Z,76.34
2018-05-17T01:35:26.601Z,76.21
2018-05-17T01:38:06.014Z,75.83
2018-05-17T01:40:33.741Z,76.11
2018-05-17T01:43:01.381Z,75.52
2018-05-17T01:45:28.966Z,75.62
2018-05-17T01:47:56.577Z,75.42
2018-05-17T01:50:24.210Z,75.52
2018-05-17T01:52:52.119Z,75.53
2018-05-17T01:55:19.811Z,75.15
2018-05-17T01:57:47.397Z,75.41
2018-05-17T02:00:15.045Z,75.55
2018-05-17T02:02:42.839Z,75.37
2018-05-17T02:05:10.422Z,75.26
2018-05-17T02:07:37.999Z,74.59
2018-05-17T02:10:05.630Z,75.02
2018-05-17T02:12:33.206Z,74.82
2018-05-17T02:15:00.869Z,74.65
2018-05-17T02:17:28.823Z,74.84
2018-05-17T02:19:56.403Z,74.77
2018-05-17T02:22:24.006Z,74.81
2018-05-17T02:24:51.789Z,74.97
2018-05-17T02:27:19.366Z,74.87
2018-05-17T02:29:46.942Z,74.84
2018-05-17T02:32:14.620Z,74.45
2018-05-17T02:34:42.231Z,74.38
2018-05-17T02:37:10.156Z,74.56
2018-05-17T02:39:37.833Z,74.52
2018-05-17T02:42:05.462Z,74.38
2018-05-17T02:44:34.052Z,74.55
2018-05-17T02:47:01.735Z,74.53
2018-05-17T02:49:29.682Z,74.37
2018-05-17T02:51:57.543Z,73.94
2018-05-17T02:54:25.349Z,74.00
2018-05-17T02:56:53.385Z,73.58
2018-05-17T02:59:21.055Z,73.58
2018-05-17T03:01:48.860Z,73.89
2018-05-17T03:04:16.886Z,73.82
2018-05-17T03:06:44.464Z,73.68
2018-05-17T03:09:12.027Z,73.58
2018-05-17T03:11:40.274Z,73.73
2018-05-17T03:14:07.875Z,73.37
2018-05-17T03:16:35.545Z,73.31
2018-05-17T03:19:03.163Z,73.21
2018-05-17T03:21:30.786Z,73.31
2018-05-17T03:23:58.480Z,73.03
2018-05-17T03:26:26.111Z,72.78
2018-05-17T03:28:54.023Z,73.05
2018-05-17T03:31:21.689Z,73.16
2018-05-17T03:33:49.554Z,73.07
2018-05-17T03:36:17.163Z,72.99
2018-05-17T03:38:44.732Z,72.81
2018-05-17T03:41:12.683Z,72.50
2018-05-17T03:43:40.259Z,72.85
2018-05-17T03:46:07.828Z,72.73
2018-05-17T03:48:36.049Z,72.64
2018-05-17T03:51:03.652Z,72.56
2018-05-17T03:53:31.305Z,72.59
2018-05-17T03:55:59.019Z,72.79
2018-05-17T03:58:26.589Z,72.32
2018-05-17T04:01:06.850Z,72.61
2018-05-17T04:03:46.347Z,72.39
2018-05-17T04:06:26.162Z,71.98
2018-05-17T04:08:53.750Z,72.00
2018-05-17T04:11:21.462Z,71.84
2018-05-17T04:13:49.486Z,72.01
2018-05-17T04:16:17.098Z,72.02
2018-05-17T04:18:45.215Z,71.62
2018-05-17T04:21:12.839Z,72.17
2018-05-17T04:23:40.426Z,71.75
2018-05-17T04:26:08.122Z,71.86
2018-05-17T04:28:35.694Z,71.88
2018-05-17T04:31:05.011Z,71.54
2018-05-17T04:33:32.750Z,72.03
2018-05-17T04:36:00.339Z,71.72
2018-05-17T04:38:27.995Z,72.11
2018-05-17T04:40:55.733Z,71.70
2018-05-17T04:43:23.358Z,71.62
2018-05-17T04:45:51.343Z,71.34
2018-05-17T04:48:19.299Z,71.04
2018-05-17T04:50:46.912Z,70.88
2018-05-17T04:53:14.531Z,71.06
2018-05-17T04:55:42.204Z,70.86
2018-05-17T04:58:10.017Z,70.55
2018-05-17T05:00:37.694Z,70.87
2018-05-17T05:03:05.798Z,70.85
2018-05-17T05:05:33.379Z,70.57
2018-05-17T05:08:01.023Z,70.52
2018-05-17T05:10:28.609Z,70.42
2018-05-17T05:12:56.243Z,70.23
2018-05-17T05:15:24.105Z,70.48
2018-05-17T05:17:51.676Z,70.10
2018-05-17T05:20:19.298Z,69.59
2018-05-17T05:22:50.088Z,69.75
2018-05-17T05:25:17.869Z,70.01
2018-05-17T05:27:45.482Z,69.71
2018-05-17T05:30:13.284Z,69.09
2018-05-17T05:32:40.888Z,67.97
2018-05-17T05:35:08.702Z,68.75
2018-05-17T05:37:36.363Z,69.11
2018-05-17T05:40:04.009Z,68.35
2018-05-17T05:42:31.597Z,68.84
2018-05-17T05:44:59.281Z,68.41
2018-05-17T05:47:26.857Z,67.88
2018-05-17T05:49:54.540Z,68.13
2018-05-17T05:52:22.269Z,67.16
2018-05-17T05:54:49.867Z,67.54
2018-05-17T05:57:17.956Z,66.86
2018-05-17T05:59:45.633Z,66.78
2018-05-17T06:02:13.206Z,67.55
2018-05-17T06:04:40.811Z,67.18
2018-05-17T06:07:08.440Z,67.77
2018-05-17T06:09:36.044Z,67.02
2018-05-17T06:12:03.661Z,67.11
2018-05-17T06:14:31.680Z,66.97
2018-05-17T06:16:59.265Z,67.73
2018-05-17T06:19:26.987Z,68.05
2018-05-17T06:21:54.611Z,68.33
2018-05-17T06:24:22.188Z,67.44
2018-05-17T06:26:49.785Z,67.34
2018-05-17T06:29:17.406Z,66.85
2018-05-17T06:31:45.437Z,66.82
2018-05-17T06:34:13.008Z,67.12
2018-05-17T06:36:40.639Z,67.59
2018-05-17T06:39:08.344Z,67.55
2018-05-17T06:41:35.931Z,67.82
2018-05-17T06:44:03.761Z,66.96
2018-05-17T06:46:31.376Z,67.28
2018-05-17T06:48:59.004Z,68.06
2018-05-17T06:51:26.593Z,68.02
2018-05-17T06:53:54.402Z,67.75
2018-05-17T06:56:22.010Z,67.62
2018-05-17T06:58:49.897Z,68.16
2018-05-17T07:01:17.547Z,67.70
2018-05-17T07:03:45.111Z,67.11
2018-05-17T07:06:12.921Z,67.11
2018-05-17T07:08:40.677Z,67.34
2018-05-17T07:11:08.271Z,66.36
2018-05-17T07:13:35.845Z,66.45
2018-05-17T07:16:03.581Z,66.84
2018-05-17T07:18:31.310Z,66.86
2018-05-17T07:20:58.983Z,66.31
2018-05-17T07:23:26.589Z,67.02
2018-05-17T07:25:54.419Z,65.48
2018-05-17T07:28:21.988Z,65.81
2018-05-17T07:30:49.572Z,66.51
2018-05-17T07:33:17.167Z,66.67
2018-05-17T07:35:44.892Z,66.04
2018-05-17T07:38:12.550Z,66.48
2018-05-17T07:40:40.136Z,65.58
2018-05-17T07:43:07.751Z,65.34
2018-05-17T07:45:35.363Z,65.62
2018-05-17T07:48:03.039Z,65.61
2018-05-17T07:50:30.600Z,64.93
2018-05-17T07:52:58.186Z,65.57
2018-05-17T07:55:25.813Z,65.99
2018-05-17T07:57:53.771Z,65.84
2018-05-17T08:00:21.354Z,65.50
2018-05-17T08:02:49.281Z,64.12
2018-05-17T08:05:16.989Z,63.57
2018-05-17T08:07:44.802Z,63.31
2018-05-17T08:10:12.382Z,62.23
2018-05-17T08:12:39.969Z,61.90
2018-05-17T08:15:07.808Z,62.68
2018-05-17T08:17:35.391Z,62.00
2018-05-17T08:20:02.943Z,61.82
2018-05-17T08:22:30.916Z,61.77
2018-05-17T08:24:58.519Z,62.03
2018-05-17T08:27:26.078Z,61.32
2018-05-17T08:29:53.912Z,62.22
2018-05-17T08:32:21.478Z,62.05
2018-05-17T08:34:49.095Z,62.13
2018-05-17T08:37:16.762Z,61.66
2018-05-17T08:39:44.342Z,61.94
2018-05-17T08:42:12.170Z,62.06
2018-05-17T08:44:40.081Z,61.46
2018-05-17T08:47:07.707Z,60.19
2018-05-17T08:49:35.345Z,60.78
2018-05-17T08:52:02.971Z,61.25
2018-05-17T08:54:30.612Z,60.65
2018-05-17T08:56:58.283Z,60.14
2018-05-17T08:59:25.990Z,60.65
2018-05-17T09:01:53.554Z,60.05
2018-05-17T09:04:21.471Z,61.00
2018-05-17T09:06:49.113Z,60.33
2018-05-17T09:09:16.738Z,60.07
2018-05-17T09:11:44.299Z,60.72
2018-05-17T09:14:11.940Z,59.75
2018-05-17T09:16:39.566Z,59.80
2018-05-17T09:19:07.161Z,60.51
2018-05-17T09:21:34.735Z,58.75
2018-05-17T09:24:02.443Z,59.11
2018-05-17T09:26:30.032Z,57.76
2018-05-17T09:28:57.803Z,57.57
2018-05-17T09:31:25.380Z,58.01
2018-05-17T09:33:53.020Z,57.27
2018-05-17T09:36:21.298Z,58.54
2018-05-17T09:38:48.964Z,58.59
2018-05-17T09:41:16.624Z,58.04
2018-05-17T09:43:44.155Z,57.26
2018-05-17T09:46:11.752Z,56.54
2018-05-17T09:48:39.548Z,58.35
2018-05-17T09:51:07.191Z,57.88
2018-05-17T09:53:34.759Z,57.82
2018-05-17T09:56:02.332Z,58.29
2018-05-17T09:58:29.928Z,58.48
2018-05-17T10:00:57.617Z,57.00
2018-05-17T10:03:25.235Z,56.86
2018-05-17T10:05:52.831Z,56.63
2018-05-17T10:08:20.473Z,57.12
2018-05-17T10:10:48.045Z,57.10
2018-05-17T10:13:15.658Z,56.36
2018-05-17T10:15:43.301Z,57.13
2018-05-17T10:18:10.873Z,57.10
2018-05-17T10:20:38.599Z,57.41
2018-05-17T10:23:06.250Z,57.47
2018-05-17T10:25:33.838Z,57.43
2018-05-17T10:28:01.435Z,57.46
2018-05-17T10:30:29.131Z,56.86
2018-05-17T10:32:57.627Z,56.48
2018-05-17T10:35:25.192Z,56.20
2018-05-17T10:37:52.823Z,56.80
2018-05-17T10:40:20.548Z,57.26
2018-05-17T10:42:48.113Z,57.61
2018-05-17T10:45:16.636Z,56.92
2018-05-17T10:47:44.276Z,56.74
2018-05-17T10:50:11.936Z,57.44
2018-05-17T10:52:39.520Z,57.18
2018-05-17T10:55:07.220Z,56.05
2018-05-17T10:57:34.884Z,56.31
2018-05-17T11:00:02.494Z,55.40
2018-05-17T11:02:30.151Z,54.95
2018-05-17T11:04:57.814Z,56.55
2018-05-17T11:07:25.384Z,56.06
2018-05-17T11:09:52.986Z,56.99
2018-05-17T11:12:20.672Z,56.17
2018-05-17T11:14:48.227Z,57.59
2018-05-17T11:17:16.034Z,56.45
2018-05-17T11:19:43.683Z,56.00
2018-05-17T11:22:11.273Z,56.74
2018-05-17T11:24:38.855Z,56.46
2018-05-17T11:27:06.449Z,57.37
2018-05-17T11:29:34.083Z,56.96
2018-05-17T11:32:01.660Z,57.85
2018-05-17T11:34:29.353Z,58.25
2018-05-17T11:36:56.911Z,58.79
2018-05-17T11:39:24.464Z,58.49
2018-05-17T11:41:52.124Z,58.76
2018-05-17T11:44:19.743Z,58.93
2018-05-17T11:46:47.448Z,59.17
2018-05-17T11:49:15.250Z,59.30
2018-05-17T11:51:42.827Z,59.36
2018-05-17T11:54:10.445Z,60.08
2018-05-17T11:56:38.004Z,60.49
2018-05-17T11:59:05.612Z,60.52
2018-05-17T12:01:33.419Z,61.04
2018-05-17T12:04:00.924Z,61.29
2018-05-17T12:06:28.726Z,60.76
2018-05-17T12:08:56.562Z,61.41
2018-05-17T12:11:24.199Z,62.08
2018-05-17T12:13:51.992Z,61.79
2018-05-17T12:16:19.582Z,61.95
2018-05-17T12:18:47.146Z,61.57
2018-05-17T12:21:15.037Z,62.26
2018-05-17T12:23:42.597Z,62.64
2018-05-17T12:26:10.200Z,63.42
2018-05-17T12:28:37.787Z,62.65
2018-05-17T12:31:05.343Z,62.23
2018-05-17T12:33:32.968Z,61.87
2018-05-17T12:36:00.591Z,62.64
2018-05-17T12:38:28.184Z,63.34
2018-05-17T12:40:55.743Z,62.75
2018-05-17T12:43:23.836Z,62.29
2018-05-17T12:45:51.400Z,62.55
2018-05-17T12:48:18.964Z,62.70
2018-05-17T12:50:47.211Z,62.85
2018-05-17T12:53:15.014Z,63.49
2018-05-17T12:55:42.625Z,63.86
2018-05-17T12:58:10.645Z,63.78
2018-05-17T13:00:37.947Z,63.32
2018-05-17T13:03:05.739Z,63.05
2018-05-17T13:05:33.388Z,62.32
2018-05-17T13:08:01.079Z,62.38
2018-05-17T13:10:28.704Z,62.61
2018-05-17T13:12:56.327Z,62.84
2018-05-17T13:15:23.943Z,63.90
2018-05-17T13:17:51.504Z,64.05
2018-05-17T13:20:19.524Z,62.88
2018-05-17T13:22:47.083Z,63.82
2018-05-17T13:25:14.640Z,63.18
2018-05-17T13:27:42.346Z,63.90
2018-05-17T13:30:10.287Z,63.25
2018-05-17T13:32:37.820Z,63.22
2018-05-17T13:35:05.408Z,63.65
2018-05-17T13:37:33.157Z,63.28
2018-05-17T13:40:00.666Z,63.87
2018-05-17T13:42:28.247Z,63.86
2018-05-17T13:44:55.938Z,63.69
2018-05-17T13:47:23.491Z,63.75
2018-05-17T13:49:51.054Z,64.63
2018-05-17T13:52:18.998Z,64.67
2018-05-17T13:54:46.565Z,64.84
2018-05-17T13:57:14.197Z,64.84
2018-05-17T13:59:41.979Z,64.89
2018-05-17T14:02:09.775Z,64.80
2018-05-17T14:04:37.337Z,64.51
2018-05-17T14:07:05.320Z,64.85
2018-05-17T14:09:32.878Z,65.15
2018-05-17T14:12:00.452Z,64.94
2018-05-17T14:14:28.051Z,65.18
2018-05-17T14:16:55.611Z,65.79
2018-05-17T14:19:23.200Z,65.84
2018-05-17T14:21:50.999Z,65.74
2018-05-17T14:24:18.692Z,65.35
2018-05-17T14:26:46.264Z,65.27
2018-05-17T14:29:14.121Z,65.21
2018-05-17T14:31:41.773Z,65.27
2018-05-17T14:34:09.337Z,65.70
2018-05-17T14:36:37.312Z,65.77
2018-05-17T14:39:05.791Z,65.98
2018-05-17T14:41:33.346Z,66.89
2018-05-17T14:44:00.938Z,66.77
2018-05-17T14:46:28.499Z,67.58
2018-05-17T14:48:56.407Z,66.85
2018-05-17T14:51:23.972Z,66.38
2018-05-17T14:53:51.600Z,66.50
2018-05-17T14:56:19.694Z,67.02
2018-05-17T14:58:47.376Z,67.31
2018-05-17T15:01:14.950Z,67.08
2018-05-17T15:03:42.549Z,67.20
2018-05-17T15:06:10.398Z,66.59
2018-05-17T15:08:38.698Z,67.15
2018-05-17T15:11:06.258Z,67.86
2018-05-17T15:13:33.828Z,67.81
2018-05-17T15:16:01.492Z,67.85
2018-05-17T15:18:29.325Z,68.05
2018-05-17T15:20:56.948Z,68.19
2018-05-17T15:23:24.820Z,67.74
2018-05-17T15:25:52.731Z,68.51
2018-05-17T15:28:20.405Z,68.82
2018-05-17T15:30:47.962Z,68.57
2018-05-17T15:33:15.524Z,68.38
2018-05-17T15:35:43.118Z,68.49
2018-05-17T15:38:11.130Z,68.74
2018-05-17T15:40:38.797Z,69.03
2018-05-17T15:43:06.365Z,69.36
2018-05-17T15:45:33.948Z,69.39
2018-05-17T15:48:01.827Z,69.11
2018-05-17T15:50:29.475Z,68.92
2018-05-17T15:52:57.037Z,69.06
2018-05-17T15:55:25.269Z,69.02
2018-05-17T15:57:52.827Z,69.50
2018-05-17T16:00:20.394Z,69.58
2018-05-17T16:02:48.010Z,69.51
2018-05-17T16:05:15.624Z,70.08
2018-05-17T16:07:43.255Z,69.93
2018-05-17T16:10:10.819Z,69.85
2018-05-17T16:12:38.399Z,70.04
2018-05-17T16:15:06.115Z,70.38
2018-05-17T16:17:33.612Z,69.33
2018-05-17T16:20:01.273Z,69.84
2018-05-17T16:22:29.073Z,69.83
2018-05-17T16:24:57.022Z,70.10
2018-05-17T16:27:24.649Z,70.34
2018-05-17T16:29:52.825Z,69.63
2018-05-17T16:32:20.390Z,69.94
2018-05-17T16:34:47.951Z,70.74
2018-05-17T16:37:15.543Z,70.79
2018-05-17T16:39:43.375Z,71.19
2018-05-17T16:42:11.133Z,70.99
2018-05-17T16:44:38.706Z,71.30
2018-05-17T16:47:06.517Z,71.55
2018-05-17T16:49:34.115Z,71.13
2018-05-17T16:52:01.880Z,71.29
2018-05-17T16:54:29.526Z,71.33
2018-05-17T16:56:57.099Z,71.54
2018-05-17T16:59:25.088Z,71.62
2018-05-17T17:01:52.712Z,71.29
2018-05-17T17:04:20.372Z,71.67
2018-05-17T17:06:48.203Z,71.86
2018-05-17T17:09:15.766Z,71.94
2018-05-17T17:11:43.882Z,71.53
2018-05-17T17:14:11.445Z,71.14
2018-05-17T17:16:39.079Z,71.30
2018-05-17T17:19:06.929Z,71.29
2018-05-17T17:21:34.580Z,71.51
2018-05-17T17:24:02.191Z,72.05
2018-05-17T17:26:29.852Z,71.85
2018-05-17T17:28:57.692Z,72.20
2018-05-17T17:31:25.280Z,72.11
2018-05-17T17:33:53.103Z,72.20
2018-05-17T17:36:20.837Z,71.75
2018-05-17T17:38:48.408Z,71.14
2018-05-17T17:41:16.184Z,71.01
2018-05-17T17:43:43.770Z,71.06
2018-05-17T17:46:11.413Z,71.70
2018-05-17T17:48:39.047Z,72.18
2018-05-17T17:51:06.626Z,71.94
2018-05-17T17:53:34.205Z,71.71
2018-05-17T17:56:01.844Z,72.05
2018-05-17T17:58:29.572Z,72.17
2018-05-17T18:00:57.346Z,72.26
2018-05-17T18:03:24.961Z,71.92
2018-05-17T18:05:52.795Z,72.09
2018-05-17T18:08:20.444Z,72.37
2018-05-17T18:10:48.048Z,72.08
2018-05-17T18:13:15.680Z,72.00
2018-05-17T18:15:43.285Z,71.99
2018-05-17T18:18:11.739Z,72.03
2018-05-17T18:20:39.573Z,72.12
2018-05-17T18:23:07.155Z,72.28
2018-05-17T18:25:34.989Z,72.32
2018-05-17T18:28:02.611Z,72.69
2018-05-17T18:30:30.195Z,72.98
2018-05-17T18:32:58.425Z,72.92
2018-05-17T18:35:26.064Z,73.00
2018-05-17T18:37:53.635Z,73.23
2018-05-17T18:40:21.234Z,73.36
2018-05-17T18:42:48.840Z,73.52
2018-05-17T18:45:16.573Z,73.69
2018-05-17T18:47:44.229Z,73.97
2018-05-17T18:50:11.832Z,73.99
2018-05-17T18:52:39.453Z,73.82
2018-05-17T18:55:07.071Z,74.15
2018-05-17T18:57:34.811Z,74.01
2018-05-17T19:00:02.394Z,73.63
2018-05-17T19:02:29.987Z,73.63
2018-05-17T19:04:57.611Z,73.84
2018-05-17T19:07:25.264Z,73.61
2018-05-17T19:09:53.379Z,73.50
2018-05-17T19:12:20.982Z,73.57
2018-05-17T19:14:48.591Z,73.62
2018-05-17T19:17:16.495Z,72.47
2018-05-17T19:19:44.171Z,72.50
2018-05-17T19:22:11.765Z,72.76
2018-05-17T19:24:39.333Z,73.00
2018-05-17T19:27:06.939Z,73.01
2018-05-17T19:29:34.571Z,73.20
2018-05-17T19:32:02.163Z,73.06
2018-05-17T19:34:29.912Z,73.43
2018-05-17T19:36:57.557Z,73.49
2018-05-17T19:39:25.401Z,73.21
2018-05-17T19:41:53.006Z,72.78
2018-05-17T19:44:20.861Z,73.21
2018-05-17T19:46:48.516Z,73.07
2018-05-17T19:49:16.124Z,73.01
2018-05-17T19:51:43.728Z,72.38
2018-05-17T19:54:11.301Z,72.64
2018-05-17T19:56:39.317Z,72.66
2018-05-17T19:59:06.900Z,72.76
2018-05-17T20:01:34.479Z,72.29
2018-05-17T20:04:02.166Z,72.60
2018-05-17T20:06:29.768Z,72.67
2018-05-17T20:08:57.371Z,72.94
2018-05-17T20:11:25.110Z,73.34
2018-05-17T20:13:52.692Z,73.24
2018-05-17T20:16:20.478Z,73.14
2018-05-17T20:18:48.175Z,72.81
2018-05-17T20:21:15.841Z,73.00
2018-05-17T20:23:43.613Z,72.67
2018-05-17T20:26:11.528Z,72.62
2018-05-17T20:28:39.145Z,72.44
2018-05-17T20:31:06.861Z,72.89
2018-05-17T20:33:34.659Z,72.96
2018-05-17T20:36:02.236Z,72.83
2018-05-17T20:38:29.945Z,72.71
2018-05-17T20:40:57.760Z,72.83
2018-05-17T20:43:25.459Z,72.93
2018-05-17T20:45:53.088Z,72.97
2018-05-17T20:48:20.920Z,73.03
2018-05-17T20:50:48.511Z,72.88
2018-05-17T20:53:16.137Z,72.36
2018-05-17T20:55:43.727Z,72.60
2018-05-17T20:58:11.304Z,72.41
2018-05-17T21:00:38.928Z,72.26
2018-05-17T21:03:06.747Z,72.42
2018-05-17T21:05:34.474Z,72.22
2018-05-17T21:08:02.726Z,72.04
2018-05-17T21:10:30.389Z,71.78
2018-05-17T21:12:59.625Z,71.19
2018-05-17T21:15:27.586Z,71.12
2018-05-17T21:17:55.463Z,70.88
2018-05-17T21:20:23.108Z,71.11
2018-05-17T21:22:50.683Z,71.12
2018-05-17T21:27:55.253Z,71.69
2018-05-17T21:30:24.186Z,71.42
2018-05-17T21:32:53.874Z,70.89
2018-05-17T21:35:21.853Z,71.25
2018-05-17T21:37:51.446Z,71.72
2018-05-17T21:40:20.049Z,71.94
2018-05-17T21:42:49.059Z,71.54
2018-05-17T21:45:16.648Z,71.51
2018-05-17T21:47:44.231Z,71.52
2018-05-17T21:50:12.121Z,71.64
2018-05-17T21:52:40.179Z,71.87
2018-05-17T21:55:07.757Z,72.01
2018-05-17T21:57:35.373Z,72.02
2018-05-17T22:00:03.359Z,71.88
2018-05-17T22:02:30.937Z,71.91
2018-05-17T22:04:58.569Z,71.75
2018-05-17T22:07:26.761Z,72.31
2018-05-17T22:09:54.447Z,72.54
2018-05-17T22:12:22.032Z,72.33
2018-05-17T22:14:49.638Z,71.89
2018-05-17T22:17:17.204Z,71.96
2018-05-17T22:19:44.816Z,71.99
2018-05-17T22:22:12.475Z,71.78
2018-05-17T22:24:40.318Z,72.03
2018-05-17T22:27:07.920Z,72.46
2018-05-17T22:29:35.545Z,71.76
2018-05-17T22:32:03.429Z,71.86
2018-05-17T22:34:31.272Z,72.00
2018-05-17T22:36:58.893Z,71.85
2018-05-17T22:39:26.604Z,71.65
2018-05-17T22:41:54.187Z,71.16
2018-05-17T22:44:21.760Z,70.59
2018-05-17T22:46:49.666Z,70.74
2018-05-17T22:49:17.251Z,70.69
2018-05-17T22:51:45.243Z,70.45
2018-05-17T22:54:12.880Z,70.81
2018-05-17T22:56:52.188Z,70.38
2018-05-17T22:59:19.761Z,70.35
2018-05-17T23:01:47.379Z,70.34
2018-05-17T23:04:14.988Z,70.57
2018-05-17T23:06:42.841Z,69.76
2018-05-17T23:09:10.804Z,70.00
2018-05-17T23:11:38.373Z,70.17
2018-05-17T23:14:06.823Z,70.17
2018-05-17T23:16:35.004Z,70.51
2018-05-17T23:19:02.633Z,70.84
2018-05-17T23:21:30.282Z,70.63
2018-05-17T23:23:58.735Z,70.37
2018-05-17T23:26:26.352Z,70.65
2018-05-17T23:28:54.030Z,70.72
2018-05-17T23:31:21.619Z,70.77
2018-05-17T23:33:49.224Z,70.85
2018-05-17T23:36:16.890Z,71.12
2018-05-17T23:38:44.467Z,71.18
2018-05-17T23:41:23.941Z,71.19
2018-05-17T23:43:51.527Z,71.40
2018-05-17T23:46:19.243Z,70.96
2018-05-17T23:48:47.004Z,71.08
2018-05-17T23:51:14.585Z,70.95
2018-05-17T23:53:42.160Z,70.91
2018-05-17T23:56:10.092Z,71.01
2018-05-17T23:58:37.791Z,70.77
